createdAt,value
2022-09-03T00:00:06.117Z,7.20
2022-09-03T00:02:23.260Z,9.77
2022-09-03T00:04:36.769Z,8.82
2022-09-03T00:06:46.536Z,8.38
2022-09-03T00:09:08.487Z,7.82
2022-09-03T00:11:19.652Z,10.05
2022-09-03T00:13:39.270Z,7.90
2022-09-03T00:15:41.226Z,7.57
2022-09-03T00:17:54.055Z,7.95
2022-09-03T00:19:58.406Z,9.57
2022-09-03T00:22:03.746Z,7.78
2022-09-03T00:24:14.007Z,8.05
2022-09-03T00:26:23.170Z,7.95
2022-09-03T00:28:29.972Z,11.35
2022-09-03T00:30:33.801Z,11.18
2022-09-03T00:32:52.881Z,9.02
2022-09-03T00:34:59.368Z,7.28
2022-09-03T00:37:01.224Z,7.60
2022-09-03T00:39:03.210Z,8.98
2022-09-03T00:41:07.233Z,9.98
2022-09-03T00:43:14.982Z,8.63
2022-09-03T00:45:31.468Z,10.38
2022-09-03T00:47:51.753Z,10.05
2022-09-03T00:50:03.185Z,9.82
2022-09-03T00:52:19.037Z,13.90
2022-09-03T00:54:40.515Z,9.32
2022-09-03T00:57:25.802Z,10.18
2022-09-03T00:59:32.283Z,12.30
2022-09-03T01:01:41.455Z,10.88
2022-09-03T01:04:09.565Z,8.65
2022-09-03T01:06:20.333Z,7.93
2022-09-03T01:08:35.960Z,8.40
2022-09-03T01:10:57.362Z,10.63
2022-09-03T01:13:14.105Z,8.25
2022-09-03T01:15:30.313Z,7.90
2022-09-03T01:17:54.916Z,7.57
2022-09-03T01:20:09.891Z,7.28
2022-09-03T01:22:29.348Z,9.40
2022-09-03T01:24:53.294Z,8.73
2022-09-03T01:26:54.884Z,7.28
2022-09-03T01:29:12.547Z,9.02
2022-09-03T01:31:52.010Z,8.77
2022-09-03T01:34:23.605Z,9.25
2022-09-03T01:37:03.032Z,10.95
2022-09-03T01:39:24.008Z,7.78
2022-09-03T01:42:07.067Z,9.52
2022-09-03T01:44:16.914Z,8.63
2022-09-03T01:46:40.797Z,9.95
2022-09-03T01:48:49.584Z,10.30
2022-09-03T01:51:00.324Z,8.27
2022-09-03T01:53:11.121Z,9.65
2022-09-03T01:55:29.310Z,9.55
2022-09-03T01:57:56.281Z,9.25
2022-09-03T02:00:08.700Z,8.30
2022-09-03T02:02:12.821Z,9.13
2022-09-03T02:04:20.660Z,10.00
2022-09-03T02:06:22.454Z,8.48
2022-09-03T02:08:24.566Z,9.85
2022-09-03T02:10:33.362Z,10.50
2022-09-03T02:12:38.512Z,7.70
2022-09-03T02:14:40.585Z,8.10
2022-09-03T02:16:44.486Z,9.18
2022-09-03T02:18:48.748Z,8.93
2022-09-03T02:20:53.234Z,7.75
2022-09-03T02:22:56.620Z,11.10
2022-09-03T02:24:58.521Z,9.27
2022-09-03T02:27:00.178Z,7.97
2022-09-03T02:29:02.500Z,10.27
2022-09-03T02:31:04.993Z,11.77
2022-09-03T02:33:06.972Z,7.18
2022-09-03T02:35:09.274Z,8.57
2022-09-03T02:37:18.609Z,8.98
2022-09-03T02:39:20.342Z,8.85
2022-09-03T02:41:22.890Z,8.40
2022-09-03T02:43:38.838Z,10.07
2022-09-03T02:45:48.811Z,12.80
2022-09-03T02:47:52.995Z,9.20
2022-09-03T02:49:54.897Z,8.63
2022-09-03T02:52:02.218Z,9.98
2022-09-03T02:54:04.316Z,9.98
2022-09-03T02:56:06.703Z,8.32
2022-09-03T02:58:08.964Z,9.40
2022-09-03T03:00:11.014Z,9.70
2022-09-03T03:02:13.935Z,9.43
2022-09-03T03:04:15.667Z,9.02
2022-09-03T03:06:21.066Z,9.07
2022-09-03T03:08:25.239Z,8.77
2022-09-03T03:10:27.047Z,11.25
2022-09-03T03:12:31.451Z,11.55
2022-09-03T03:14:33.187Z,9.45
2022-09-03T03:16:35.165Z,14.18
2022-09-03T03:18:36.980Z,9.95
2022-09-03T03:20:39.099Z,10.73
2022-09-03T03:22:40.745Z,12.32
2022-09-03T03:24:42.421Z,11.00
2022-09-03T03:26:44.146Z,12.95
2022-09-03T03:28:48.893Z,11.23
2022-09-03T03:30:51.169Z,15.32
2022-09-03T03:32:56.367Z,13.13
2022-09-03T03:34:58.132Z,12.77
2022-09-03T03:37:00.237Z,11.07
2022-09-03T03:39:02.356Z,12.85
2022-09-03T03:41:08.296Z,11.90
2022-09-03T03:43:10.022Z,11.50
2022-09-03T03:45:11.646Z,12.00
2022-09-03T03:47:13.403Z,11.15
2022-09-03T03:49:15.094Z,12.65
2022-09-03T03:51:16.855Z,11.55
2022-09-03T03:53:18.956Z,13.80
2022-09-03T03:55:20.581Z,11.85
2022-09-03T03:57:23.054Z,12.63
2022-09-03T03:59:24.835Z,12.85
2022-09-03T04:01:27.615Z,9.38
2022-09-03T04:03:29.426Z,11.87
2022-09-03T04:05:33.635Z,11.07
2022-09-03T04:07:35.554Z,10.80
2022-09-03T04:09:37.897Z,12.32
2022-09-03T04:11:39.569Z,9.45
2022-09-03T04:13:42.785Z,10.45
2022-09-03T04:15:45.064Z,9.20
2022-09-03T04:17:46.738Z,9.57
2022-09-03T04:19:48.835Z,11.48
2022-09-03T04:21:50.501Z,10.43
2022-09-03T04:23:52.933Z,11.00
2022-09-03T04:25:54.809Z,9.68
2022-09-03T04:27:56.529Z,10.15
2022-09-03T04:29:58.302Z,12.95
2022-09-03T04:32:18.524Z,10.27
2022-09-03T04:34:20.163Z,9.30
2022-09-03T04:36:24.029Z,9.88
2022-09-03T04:38:25.732Z,14.85
2022-09-03T04:40:27.451Z,11.20
2022-09-03T04:42:29.065Z,10.73
2022-09-03T04:44:30.694Z,10.60
2022-09-03T04:46:35.082Z,11.23
2022-09-03T04:48:37.846Z,14.30
2022-09-03T04:50:40.169Z,9.40
2022-09-03T04:52:41.831Z,9.52
2022-09-03T04:54:43.485Z,10.73
2022-09-03T04:56:45.110Z,8.73
2022-09-03T04:58:51.111Z,10.75
2022-09-03T05:00:53.263Z,7.50
2022-09-03T05:02:54.980Z,8.30
2022-09-03T05:04:56.705Z,8.32
2022-09-03T05:06:58.356Z,9.10
2022-09-03T05:09:00.735Z,10.23
2022-09-03T05:11:04.297Z,13.00
2022-09-03T05:13:06.140Z,9.50
2022-09-03T05:15:08.525Z,9.80
2022-09-03T05:17:10.162Z,11.00
2022-09-03T05:19:12.644Z,9.60
2022-09-03T05:21:16.639Z,11.20
2022-09-03T05:23:19.871Z,9.75
2022-09-03T05:25:21.914Z,8.55
2022-09-03T05:27:24.196Z,8.57
2022-09-03T05:29:26.101Z,8.68
2022-09-03T05:31:30.281Z,9.43
2022-09-03T05:33:36.495Z,8.43
2022-09-03T05:35:38.789Z,8.85
2022-09-03T05:37:40.455Z,7.30
2022-09-03T05:39:42.233Z,8.25
2022-09-03T05:41:43.965Z,8.77
2022-09-03T05:43:45.597Z,9.23
2022-09-03T05:45:47.532Z,10.02
2022-09-03T05:47:49.268Z,7.70
2022-09-03T05:49:51.189Z,9.82
2022-09-03T05:51:52.935Z,8.25
2022-09-03T05:53:55.650Z,8.80
2022-09-03T05:55:58.897Z,8.43
2022-09-03T05:58:00.692Z,6.97
2022-09-03T06:00:02.604Z,9.25
2022-09-03T06:02:05.531Z,10.07
2022-09-03T06:04:09.851Z,6.68
2022-09-03T06:06:13.781Z,6.68
2022-09-03T06:08:15.447Z,7.22
2022-09-03T06:10:17.259Z,7.47
2022-09-03T06:12:18.887Z,9.52
2022-09-03T06:14:20.867Z,9.05
2022-09-03T06:16:30.838Z,7.38
2022-09-03T06:18:33.992Z,7.10
2022-09-03T06:20:37.290Z,9.20
2022-09-03T06:22:39.206Z,10.57
2022-09-03T06:24:40.954Z,9.85
2022-09-03T06:26:43.389Z,9.63
2022-09-03T06:28:45.691Z,8.27
2022-09-03T06:30:48.111Z,7.78
2022-09-03T06:32:50.673Z,9.50
2022-09-03T06:34:52.342Z,10.40
2022-09-03T06:36:54.784Z,11.10
2022-09-03T06:38:57.351Z,8.23
2022-09-03T06:41:04.250Z,8.05
2022-09-03T06:43:05.902Z,8.63
2022-09-03T06:45:12.117Z,9.63
2022-09-03T06:47:14.080Z,7.93
2022-09-03T06:49:15.863Z,8.23
2022-09-03T06:51:26.111Z,8.20
2022-09-03T06:53:31.967Z,7.30
2022-09-03T06:55:33.858Z,7.72
2022-09-03T06:57:35.475Z,9.65
2022-09-03T06:59:37.137Z,9.60
2022-09-03T07:01:43.510Z,8.98
2022-09-03T07:03:48.448Z,10.75
2022-09-03T07:07:51.624Z,9.10
2022-09-03T07:09:53.272Z,7.85
2022-09-03T07:11:55.443Z,9.18
2022-09-03T07:13:58.248Z,9.18
2022-09-03T07:16:05.190Z,9.40
2022-09-03T07:18:07.510Z,7.10
2022-09-03T07:20:09.421Z,8.77
2022-09-03T07:22:11.681Z,9.73
2022-09-03T07:24:13.397Z,8.18
2022-09-03T07:26:17.664Z,7.95
2022-09-03T07:28:19.379Z,7.35
2022-09-03T07:30:21.175Z,9.25
2022-09-03T07:32:22.844Z,6.85
2022-09-03T07:34:26.791Z,9.02
2022-09-03T07:36:30.496Z,6.70
2022-09-03T07:38:37.498Z,12.18
2022-09-03T07:40:42.162Z,8.15
2022-09-03T07:42:43.908Z,5.85
2022-09-03T07:44:45.582Z,7.13
2022-09-03T07:46:48.245Z,7.40
2022-09-03T07:48:52.138Z,7.33
2022-09-03T07:50:59.971Z,7.60
2022-09-03T07:53:01.700Z,7.63
2022-09-03T07:55:04.995Z,7.57
2022-09-03T07:57:07.222Z,7.88
2022-09-03T07:59:09.515Z,7.55
2022-09-03T08:01:16.390Z,9.27
2022-09-03T08:03:19.083Z,5.57
2022-09-03T08:05:21.404Z,7.38
2022-09-03T08:07:23.189Z,8.15
2022-09-03T08:09:25.339Z,10.75
2022-09-03T08:11:28.477Z,9.05
2022-09-03T08:13:30.341Z,6.10
2022-09-03T08:15:33.054Z,7.05
2022-09-03T08:17:34.696Z,7.23
2022-09-03T08:19:38.349Z,7.47
2022-09-03T08:21:43.446Z,6.63
2022-09-03T08:23:47.734Z,6.15
2022-09-03T08:25:49.379Z,6.22
2022-09-03T08:27:51.473Z,7.90
2022-09-03T08:29:53.221Z,7.13
2022-09-03T08:31:56.131Z,6.68
2022-09-03T08:33:59.400Z,6.25
2022-09-03T08:36:01.039Z,5.93
2022-09-03T08:38:06.029Z,5.55
2022-09-03T08:40:12.275Z,7.10
2022-09-03T08:42:50.314Z,5.78
2022-09-03T08:44:58.271Z,8.65
2022-09-03T08:47:09.862Z,8.45
2022-09-03T08:49:15.385Z,7.95
2022-09-03T08:51:29.963Z,6.30
2022-09-03T08:53:46.940Z,7.55
2022-09-03T08:55:56.060Z,7.28
2022-09-03T08:58:07.226Z,6.45
2022-09-03T09:00:09.379Z,5.80
2022-09-03T09:02:28.206Z,6.65
2022-09-03T09:05:00.429Z,7.30
2022-09-03T09:07:14.199Z,5.85
2022-09-03T09:10:01.035Z,5.80
2022-09-03T09:12:46.846Z,6.80
2022-09-03T09:15:09.189Z,6.85
2022-09-03T09:17:28.230Z,6.30
2022-09-03T09:19:38.830Z,10.65
2022-09-03T09:21:46.275Z,8.73
2022-09-03T09:23:49.504Z,7.75
2022-09-03T09:25:51.850Z,12.38
2022-09-03T09:28:30.686Z,6.30
2022-09-03T09:30:32.902Z,8.35
2022-09-03T09:32:38.554Z,6.97
2022-09-03T09:34:41.368Z,5.75
2022-09-03T09:36:47.955Z,6.80
2022-09-03T09:38:49.657Z,7.10
2022-09-03T09:40:51.330Z,7.80
2022-09-03T09:43:04.103Z,6.78
2022-09-03T09:45:11.281Z,5.57
2022-09-03T09:47:39.838Z,6.57
2022-09-03T09:49:55.106Z,7.07
2022-09-03T09:52:12.170Z,7.18
2022-09-03T09:54:20.322Z,5.10
2022-09-03T09:56:26.192Z,6.03
2022-09-03T09:58:30.821Z,7.75
2022-09-03T10:00:35.219Z,6.93
2022-09-03T10:02:38.262Z,5.38
2022-09-03T10:04:40.532Z,7.25
2022-09-03T10:06:59.206Z,6.72
2022-09-03T10:09:11.384Z,5.88
2022-09-03T10:11:14.372Z,5.32
2022-09-03T10:13:19.508Z,8.75
2022-09-03T10:15:33.809Z,5.63
2022-09-03T10:17:56.641Z,7.57
2022-09-03T10:20:23.989Z,6.20
2022-09-03T10:22:26.475Z,8.38
2022-09-03T10:24:59.480Z,6.45
2022-09-03T10:27:01.890Z,5.82
2022-09-03T10:29:08.762Z,6.80
2022-09-03T10:31:36.770Z,5.00
2022-09-03T10:33:49.572Z,6.78
2022-09-03T10:36:04.874Z,7.65
2022-09-03T10:38:30.132Z,6.25
2022-09-03T10:40:41.647Z,7.60
2022-09-03T10:43:33.927Z,5.97
2022-09-03T10:45:41.670Z,6.53
2022-09-03T10:48:01.416Z,6.78
2022-09-03T10:50:27.304Z,7.28
2022-09-03T10:52:49.596Z,4.63
2022-09-03T10:55:15.234Z,4.70
2022-09-03T10:57:23.175Z,4.75
2022-09-03T10:59:28.965Z,5.82
2022-09-03T11:01:40.411Z,6.07
2022-09-03T11:03:52.410Z,5.45
2022-09-03T11:06:00.596Z,5.82
2022-09-03T11:08:23.659Z,8.38
2022-09-03T11:10:30.965Z,6.43
2022-09-03T11:12:37.149Z,5.00
2022-09-03T11:14:44.875Z,6.20
2022-09-03T11:16:55.213Z,7.05
2022-09-03T11:19:05.582Z,6.53
2022-09-03T11:21:12.401Z,5.68
2022-09-03T11:23:14.953Z,5.60
2022-09-03T11:25:20.081Z,5.30
2022-09-03T11:27:53.315Z,7.68
2022-09-03T11:30:09.712Z,5.90
2022-09-03T11:32:20.964Z,7.57
2022-09-03T11:34:23.591Z,6.18
2022-09-03T11:36:36.725Z,6.35
2022-09-03T11:38:39.687Z,4.82
2022-09-03T11:41:14.596Z,4.82
2022-09-03T11:43:25.235Z,7.20
2022-09-03T11:45:27.043Z,4.57
2022-09-03T11:47:40.262Z,4.57
2022-09-03T11:49:50.886Z,4.90
2022-09-03T11:52:03.737Z,5.28
2022-09-03T11:54:12.742Z,10.70
2022-09-03T11:56:19.401Z,5.63
2022-09-03T11:58:29.779Z,3.92
2022-09-03T12:00:31.636Z,4.78
2022-09-03T12:02:36.314Z,4.40
2022-09-03T12:04:53.523Z,4.00
2022-09-03T12:07:09.615Z,10.20
2022-09-03T12:09:26.974Z,4.72
2022-09-03T12:11:37.396Z,4.50
2022-09-03T12:13:45.036Z,4.57
2022-09-03T12:15:56.043Z,4.70
2022-09-03T12:18:20.399Z,4.43
2022-09-03T12:20:28.696Z,4.28
2022-09-03T12:22:31.432Z,4.25
2022-09-03T12:24:37.742Z,4.97
2022-09-03T12:26:42.142Z,5.00
2022-09-03T12:28:49.645Z,5.60
2022-09-03T12:30:54.064Z,6.35
2022-09-03T12:33:11.083Z,5.53
2022-09-03T12:42:14.457Z,4.97
2022-09-03T12:44:39.478Z,5.57
2022-09-03T12:46:42.035Z,6.32
2022-09-03T12:53:41.009Z,4.68
2022-09-03T12:55:53.966Z,4.90
2022-09-03T12:58:26.645Z,4.17
2022-09-03T13:00:29.937Z,5.53
2022-09-03T13:02:46.330Z,5.82
2022-09-03T13:04:48.058Z,5.07
2022-09-03T13:07:06.358Z,4.80
2022-09-03T13:09:09.276Z,6.47
2022-09-03T13:11:11.059Z,4.50
2022-09-03T13:13:32.266Z,4.53
2022-09-03T13:15:34.089Z,8.15
2022-09-03T13:17:57.488Z,9.57
2022-09-03T13:20:08.439Z,5.77
2022-09-03T13:22:18.828Z,4.38
2022-09-03T13:24:58.484Z,5.47
2022-09-03T13:27:03.312Z,4.38
2022-09-03T13:29:14.785Z,4.53
2022-09-03T13:31:31.749Z,4.72
2022-09-03T13:33:44.992Z,4.60
2022-09-03T13:36:15.144Z,5.32
2022-09-03T13:38:37.996Z,4.78
2022-09-03T13:40:50.153Z,5.85
2022-09-03T13:42:55.681Z,4.97
2022-09-03T13:45:16.913Z,3.58
2022-09-03T13:47:33.822Z,4.20
2022-09-03T13:50:01.627Z,3.45
2022-09-03T13:52:07.791Z,3.60
2022-09-03T13:54:48.190Z,4.63
2022-09-03T13:56:58.385Z,3.65
2022-09-03T13:59:19.890Z,4.50
2022-09-03T14:01:42.915Z,4.90
2022-09-03T14:03:49.138Z,4.18
2022-09-03T14:06:06.876Z,5.80
2022-09-03T14:08:14.413Z,5.00
2022-09-03T14:10:54.410Z,4.13
2022-09-03T14:13:04.930Z,4.57
2022-09-03T14:15:20.913Z,4.30
2022-09-03T14:17:57.873Z,4.82
2022-09-03T14:20:21.361Z,4.47
2022-09-03T14:22:38.496Z,5.55
2022-09-03T14:25:03.666Z,8.75
2022-09-03T14:27:06.034Z,4.18
2022-09-03T14:29:10.571Z,4.88
2022-09-03T14:31:28.278Z,4.60
2022-09-03T14:33:39.624Z,8.00
2022-09-03T14:35:59.856Z,6.22
2022-09-03T14:38:10.302Z,5.18
2022-09-03T14:40:15.948Z,5.25
2022-09-03T14:43:11.545Z,4.35
2022-09-03T14:45:22.906Z,6.70
2022-09-03T14:47:35.725Z,6.13
2022-09-03T14:49:51.190Z,4.95
2022-09-03T14:52:13.389Z,5.10
2022-09-03T14:54:50.404Z,5.93
2022-09-03T14:57:30.191Z,4.45
2022-09-03T14:59:38.407Z,4.60
2022-09-03T15:01:40.235Z,5.63
2022-09-03T15:04:18.716Z,3.60
2022-09-03T15:06:28.134Z,4.35
2022-09-03T15:08:54.471Z,6.53
2022-09-03T15:11:00.128Z,4.22
2022-09-03T15:13:09.931Z,4.43
2022-09-03T15:15:22.003Z,4.15
2022-09-03T15:17:45.407Z,3.50
2022-09-03T15:20:14.970Z,5.88
2022-09-03T15:22:29.757Z,6.38
2022-09-03T15:24:52.013Z,4.18
2022-09-03T15:27:14.165Z,3.70
2022-09-03T15:29:31.379Z,5.50
2022-09-03T15:31:54.410Z,4.18
2022-09-03T15:34:11.421Z,3.92
2022-09-03T15:36:23.697Z,5.00
2022-09-03T15:38:54.603Z,6.00
2022-09-03T15:40:58.149Z,5.45
2022-09-03T15:45:19.582Z,6.00
2022-09-03T15:48:07.786Z,9.27
2022-09-03T15:50:27.174Z,6.90
2022-09-03T15:52:40.935Z,5.75
2022-09-03T15:54:49.065Z,5.80
2022-09-03T15:56:55.932Z,5.90
2022-09-03T15:59:18.174Z,5.63
2022-09-03T16:01:30.215Z,5.72
2022-09-03T16:03:47.672Z,7.75
2022-09-03T16:05:55.484Z,6.85
2022-09-03T16:08:19.150Z,7.25
2022-09-03T16:10:25.464Z,9.93
2022-09-03T16:13:04.734Z,7.50
2022-09-03T16:15:13.129Z,7.78
2022-09-03T16:17:47.115Z,7.55
2022-09-03T16:19:54.499Z,9.77
2022-09-03T16:22:00.687Z,7.45
2022-09-03T16:24:17.679Z,6.90
2022-09-03T16:26:26.527Z,8.23
2022-09-03T16:28:48.414Z,6.45
2022-09-03T16:31:16.256Z,7.47
2022-09-03T16:34:01.811Z,8.18
2022-09-03T16:36:21.624Z,7.47
2022-09-03T16:38:49.834Z,5.63
2022-09-03T16:41:13.307Z,7.32
2022-09-03T16:43:41.715Z,8.70
2022-09-03T16:46:00.929Z,9.10
2022-09-03T16:48:36.129Z,8.85
2022-09-03T16:51:08.923Z,9.52
2022-09-03T16:53:44.281Z,6.72
2022-09-03T16:55:48.885Z,10.77
2022-09-03T16:58:03.224Z,11.80
2022-09-03T17:00:12.816Z,8.57
2022-09-03T17:02:41.966Z,14.52
2022-09-03T17:04:56.843Z,7.75
2022-09-03T17:07:04.982Z,6.78
2022-09-03T17:09:31.011Z,8.32
2022-09-03T17:11:38.402Z,6.13
2022-09-03T17:13:51.989Z,5.88
2022-09-03T17:16:03.342Z,9.32
2022-09-03T17:18:11.112Z,8.23
2022-09-03T17:20:25.138Z,8.98
2022-09-03T17:29:52.306Z,7.53
2022-09-03T17:32:04.696Z,6.78
2022-09-03T17:34:13.828Z,8.23
2022-09-03T17:36:24.385Z,9.25
2022-09-03T17:38:45.763Z,8.25
2022-09-03T17:40:47.955Z,7.40
2022-09-03T17:43:00.753Z,7.95
2022-09-03T17:45:05.615Z,6.85
2022-09-03T17:47:22.634Z,8.95
2022-09-03T17:49:29.376Z,9.50
2022-09-03T17:51:39.870Z,6.53
2022-09-03T17:53:55.976Z,10.27
2022-09-03T17:56:01.733Z,6.88
2022-09-03T17:58:31.660Z,6.63
2022-09-03T18:00:38.500Z,7.45
2022-09-03T18:02:50.734Z,8.45
2022-09-03T18:05:04.665Z,9.65
2022-09-03T18:07:11.531Z,9.05
2022-09-03T18:09:16.123Z,8.48
2022-09-03T18:11:40.784Z,7.32
2022-09-03T18:14:16.618Z,8.98
2022-09-03T18:16:27.695Z,8.82
2022-09-03T18:18:32.845Z,7.15
2022-09-03T18:21:27.563Z,7.95
2022-09-03T18:24:07.657Z,7.47
2022-09-03T18:26:45.010Z,10.18
2022-09-03T18:29:22.908Z,10.23
2022-09-03T18:31:42.947Z,9.18
2022-09-03T18:34:03.188Z,12.20
2022-09-03T18:36:23.962Z,9.18
2022-09-03T18:38:46.427Z,10.05
2022-09-03T18:41:17.467Z,7.97
2022-09-03T18:44:09.256Z,10.23
2022-09-03T18:50:07.512Z,10.35
2022-09-03T18:52:36.522Z,10.73
2022-09-03T18:55:08.045Z,9.80
2022-09-03T18:57:44.773Z,11.50
2022-09-03T19:00:28.095Z,9.75
2022-09-03T19:03:17.103Z,12.45
2022-09-03T19:05:55.477Z,10.73
2022-09-03T19:08:38.526Z,13.20
2022-09-03T19:11:07.859Z,11.45
2022-09-03T19:13:44.614Z,11.40
2022-09-03T19:16:11.774Z,11.95
2022-09-03T19:19:13.737Z,12.88
2022-09-03T19:22:00.857Z,14.73
2022-09-03T19:24:21.868Z,12.38
2022-09-03T19:26:45.785Z,12.73
2022-09-03T19:29:07.001Z,15.73
2022-09-03T19:31:55.385Z,14.38
2022-09-03T19:34:32.374Z,14.63
2022-09-03T19:37:09.439Z,11.02
2022-09-03T19:39:55.681Z,12.82
2022-09-03T19:42:29.725Z,13.18
2022-09-03T19:45:01.156Z,12.50
2022-09-03T19:47:23.092Z,9.95
2022-09-03T19:49:49.328Z,13.70
2022-09-03T19:52:09.320Z,11.40
2022-09-03T19:54:29.666Z,12.20
2022-09-03T19:56:50.305Z,12.68
2022-09-03T19:59:16.336Z,9.68
2022-09-03T20:01:38.279Z,12.98
2022-09-03T20:03:58.748Z,12.88
2022-09-03T20:06:21.470Z,10.70
2022-09-03T20:08:42.398Z,12.55
2022-09-03T20:10:44.938Z,12.25
2022-09-03T20:12:51.722Z,9.68
2022-09-03T20:14:53.497Z,9.43
2022-09-03T20:17:36.700Z,10.25
2022-09-03T20:20:00.128Z,10.18
2022-09-03T20:22:24.524Z,11.57
2022-09-03T20:27:28.222Z,12.98
2022-09-03T20:29:51.545Z,12.10
2022-09-03T20:32:06.942Z,11.43
2022-09-03T20:34:08.651Z,11.85
2022-09-03T20:36:22.774Z,10.27
2022-09-03T20:38:48.638Z,10.18
2022-09-03T20:41:12.075Z,12.32
2022-09-03T20:43:33.403Z,12.15
2022-09-03T20:45:54.056Z,12.25
2022-09-03T20:48:22.177Z,13.07
2022-09-03T20:50:43.855Z,11.90
2022-09-03T20:52:54.620Z,9.45
2022-09-03T20:55:21.920Z,11.68
2022-09-03T20:57:52.587Z,13.80
2022-09-03T21:00:10.987Z,12.18
2022-09-03T21:02:18.745Z,9.10
2022-09-03T21:04:44.381Z,14.85
2022-09-03T21:07:12.347Z,11.77
2022-09-03T21:09:53.146Z,10.38
2022-09-03T21:12:09.452Z,11.82
2022-09-03T21:14:40.439Z,11.98
2022-09-03T21:16:56.200Z,13.55
2022-09-03T21:19:00.652Z,11.88
2022-09-03T21:21:53.562Z,12.80
2022-09-03T21:24:18.570Z,13.38
2022-09-03T21:26:24.867Z,14.30
2022-09-03T21:28:37.362Z,18.75
2022-09-03T21:30:40.862Z,17.45
2022-09-03T21:32:56.039Z,16.60
2022-09-03T21:35:11.437Z,10.88
2022-09-03T21:37:13.826Z,15.38
2022-09-03T21:39:27.703Z,13.35
2022-09-03T21:41:45.615Z,12.27
2022-09-03T21:43:49.840Z,10.55
2022-09-03T21:46:13.027Z,11.02
2022-09-03T21:48:25.829Z,13.00
2022-09-03T21:50:40.195Z,15.35
2022-09-03T21:53:06.720Z,14.02
2022-09-03T21:55:38.337Z,12.38
2022-09-03T21:57:49.509Z,12.60
2022-09-03T22:00:12.764Z,12.88
2022-09-03T22:02:21.767Z,13.98
2022-09-03T22:04:26.116Z,13.63
2022-09-03T22:06:49.583Z,14.00
2022-09-03T22:08:57.496Z,15.65
2022-09-03T22:11:13.203Z,14.40
2022-09-03T22:13:28.303Z,14.77
2022-09-03T22:15:30.334Z,12.68
2022-09-03T22:17:46.947Z,13.80
2022-09-03T22:19:48.617Z,9.23
2022-09-03T22:22:00.797Z,12.00
2022-09-03T22:24:35.898Z,13.07
2022-09-03T22:26:46.485Z,9.93
2022-09-03T22:29:02.549Z,10.80
2022-09-03T22:31:06.833Z,9.55
2022-09-03T22:33:17.686Z,13.10
2022-09-03T22:35:36.577Z,13.00
2022-09-03T22:37:44.066Z,9.65
2022-09-03T22:39:47.326Z,9.30
2022-09-03T22:42:16.304Z,10.57
2022-09-03T22:44:39.589Z,8.80
2022-09-03T22:47:08.429Z,9.48
2022-09-03T22:49:34.109Z,7.57
2022-09-03T22:51:54.074Z,9.50
2022-09-03T22:54:20.541Z,11.02
2022-09-03T22:56:22.445Z,10.35
2022-09-03T22:58:28.936Z,12.57
2022-09-03T23:00:39.943Z,9.40
2022-09-03T23:02:41.972Z,9.02
2022-09-03T23:04:52.687Z,12.00
2022-09-03T23:07:04.196Z,9.05
2022-09-03T23:09:09.480Z,10.38
2022-09-03T23:11:25.517Z,11.65
2022-09-03T23:13:42.125Z,8.52
2022-09-03T23:15:46.473Z,9.00
2022-09-03T23:17:55.053Z,10.82
2022-09-03T23:20:00.740Z,10.00
2022-09-03T23:22:07.919Z,11.00
2022-09-03T23:24:18.850Z,8.70
2022-09-03T23:26:42.247Z,9.52
2022-09-03T23:28:50.853Z,10.32
2022-09-03T23:30:53.094Z,12.35
2022-09-03T23:32:59.891Z,11.43
2022-09-03T23:35:12.224Z,11.52
2022-09-03T23:37:40.589Z,14.43
2022-09-03T23:40:01.301Z,14.02
2022-09-03T23:42:11.850Z,15.55
2022-09-03T23:44:25.796Z,19.23
2022-09-03T23:46:41.585Z,23.23
2022-09-03T23:48:43.263Z,24.38
2022-09-03T23:50:54.111Z,21.50
2022-09-03T23:53:10.691Z,19.90
2022-09-03T23:55:23.209Z,21.42
2022-09-03T23:58:11.166Z,18.38
